Belgium, Wisconsin
Current Conditions -  °F | °C
As of 4:10 AM on Tuesday 27 Jan 2015 (Local Time) from KETB Reporting Station
Overcast Overcast  
Wind Chill: 21°   Ceiling: 1600
Heat Index: 27°   Visibility: 7mi
Dew Point: 23°   Wind: 5mph
Humidity: 86%   Direction: 60°ENE
Pressure: 30.01"   Gusts: NA
Location:  43.5°N, 87.85°W
Report Text: KETB 271010Z AUTO 06004KT 7SM OVC016 M03/M05 A3001 RMK AO2
Loading
Personal Weather Stations






























Interactive Weather Map New forecast layout! Learn more

10-Day Weather Forecast

Advertisements
Track Severe Weather on mobile